Latest Weather Observations for Colpoys Point

IDW60901

Issued at 6:01 am WST Friday 19 August 2022 (issued every 10 minutes, with the page automatically refreshed every 10 minutes)

About weather observations | Map of Perth area stations | Latest observations for Perth area | Other Formats
Station Details ID: 009255 Name: COLPOYS POINT Lat: -32.23 Lon: 115.70 Height: 3.0 m
Data from the previous 72 hours. | See also: Recent months for locations in Western Australia
Date/Time
WST
Temp
°C
App
Temp
°C
Dew
Point
°C
Rel
Hum
%
Delta-T
°C
Wind Press
QNH
hPa
Press
MSL
hPa
Rain since
9am
mm
Dir  Spd
km/h
Gust
km/h
Spd
kts
Gust
kts
19/06:00am - - - - - WSW 11 15 6 8 - - -
19/05:30am - - - - - SW 11 17 6 9 - - -
19/05:00am - - - - - WSW 15 20 8 11 - - -
19/04:30am - - - - - WSW 13 19 7 10 - - -
19/04:00am - - - - - WSW 11 17 6 9 - - -
19/03:30am - - - - - W 11 15 6 8 - - -
19/03:00am - - - - - WNW 13 20 7 11 - - -
19/02:30am - - - - - W 17 20 9 11 - - -
19/02:00am - - - - - WNW 11 17 6 9 - - -
19/01:30am - - - - - WNW 11 19 6 10 - - -
19/01:00am - - - - - W 7 13 4 7 - - -
19/12:30am - - - - - SW 13 19 7 10 - - -
19/12:00am - - - - - WSW 9 13 5 7 - - -
 
Date/Time
WST
Temp
°C
App
Temp
°C
Dew
Point
°C
Rel
Hum
%
Delta-T
°C
Wind Press
QNH
hPa
Press
MSL
hPa
Rain since
9am
mm
Dir  Spd
km/h
Gust
km/h
Spd
kts
Gust
kts
18/11:30pm - - - - - WSW 11 17 6 9 - - -
18/11:00pm - - - - - SW 15 19 8 10 - - -
18/10:30pm - - - - - WSW 9 13 5 7 - - -
18/10:00pm - - - - - WSW 13 19 7 10 - - -
18/09:30pm - - - - - WSW 13 20 7 11 - - -
18/09:00pm - - - - - SW 17 20 9 11 - - -
18/08:30pm - - - - - SW 15 19 8 10 - - -
18/08:00pm - - - - - WSW 9 17 5 9 - - -
18/07:30pm - - - - - WSW 11 15 6 8 - - -
18/07:00pm - - - - - WSW 13 17 7 9 - - -
18/06:30pm - - - - - WSW 13 17 7 9 - - -
18/06:00pm - - - - - WSW 9 15 5 8 - - -
18/05:30pm - - - - - N 11 19 6 10 - - -
18/05:00pm - - - - - N 13 17 7 9 - - -
18/04:30pm - - - - - N 13 20 7 11 - - -
18/04:00pm - - - - - NNW 11 13 6 7 - - -
18/03:30pm - - - - - NNW 13 24 7 13 - - -
18/03:00pm - - - - - NNW 13 19 7 10 - - -
18/02:30pm - - - - - NW 15 24 8 13 - - -
18/02:00pm - - - - - NW 13 22 7 12 - - -
18/01:30pm - - - - - NNW 15 20 8 11 - - -
18/01:00pm - - - - - N 17 22 9 12 - - -
18/12:30pm - - - - - N 20 24 11 13 - - -
18/12:00pm - - - - - N 17 20 9 11 - - -
18/11:30am - - - - - N 17 20 9 11 - - -
18/11:00am - - - - - N 15 19 8 10 - - -
18/10:30am - - - - - N 19 24 10 13 - - -
18/10:00am - - - - - NNE 17 20 9 11 - - -
18/09:30am - - - - - N 17 20 9 11 - - -
18/09:00am - - - - - NNE 17 19 9 10 - - -
18/08:30am - - - - - NNE 17 20 9 11 - - -
18/08:00am - - - - - NNE 15 19 8 10 - - -
18/07:30am - - - - - NNE 17 19 9 10 - - -
18/07:00am - - - - - NNE 17 19 9 10 - - -
18/06:30am - - - - - NE 17 19 9 10 - - -
18/06:00am - - - - - NE 17 19 9 10 - - -
18/05:30am - - - - - NE 13 15 7 8 - - -
18/05:00am - - - - - NE 13 17 7 9 - - -
18/04:30am - - - - - NE 13 15 7 8 - - -
18/04:00am - - - - - ENE 11 13 6 7 - - -
18/03:30am - - - - - ENE 9 11 5 6 - - -
18/03:00am - - - - - NE 13 15 7 8 - - -
18/02:30am - - - - - NE 9 13 5 7 - - -
18/02:00am - - - - - ENE 7 9 4 5 - - -
18/01:30am - - - - - ENE 7 9 4 5 - - -
18/01:00am - - - - - E 7 9 4 5 - - -
18/12:30am - - - - - E 6 9 3 5 - - -
18/12:00am - - - - - ESE 9 11 5 6 - - -
 
Date/Time
WST
Temp
°C
App
Temp
°C
Dew
Point
°C
Rel
Hum
%
Delta-T
°C
Wind Press
QNH
hPa
Press
MSL
hPa
Rain since
9am
mm
Dir  Spd
km/h
Gust
km/h
Spd
kts
Gust
kts
17/11:30pm - - - - - SSE 11 13 6 7 - - -
17/11:00pm - - - - - SSE 13 15 7 8 - - -
17/10:30pm - - - - - SSE 15 17 8 9 - - -
17/10:00pm - - - - - SSE 13 15 7 8 - - -
17/09:30pm - - - - - SSE 17 20 9 11 - - -
17/09:00pm - - - - - SE 15 19 8 10 - - -
17/08:30pm - - - - - SE 19 22 10 12 - - -
17/08:00pm - - - - - S 9 13 5 7 - - -
17/07:30pm - - - - - SSE 15 20 8 11 - - -
17/07:00pm - - - - - SSE 17 20 9 11 - - -
17/06:30pm - - - - - SSE 17 20 9 11 - - -
17/06:00pm - - - - - SSE 19 26 10 14 - - -
17/05:30pm - - - - - SSE 19 24 10 13 - - -
17/05:00pm - - - - - ESE 28 32 15 17 - - -
17/04:30pm - - - - - ESE 20 24 11 13 - - -
17/04:00pm - - - - - SE 17 22 9 12 - - -
17/03:30pm - - - - - SSW 2 9 1 5 - - -
17/03:00pm - - - - - WSW 20 32 11 17 - - -
17/02:30pm - - - - - WSW 7 9 4 5 - - -
17/02:00pm - - - - - W 22 37 12 20 - - -
17/01:44pm - - - - - WNW 28 52 15 28 - - -
17/01:30pm - - - - - SSE 6 11 3 6 - - -
17/01:00pm - - - - - S 13 19 7 10 - - -
17/12:30pm - - - - - SSW 15 20 8 11 - - -
17/12:00pm - - - - - SW 13 19 7 10 - - -
17/11:30am - - - - - WSW 19 28 10 15 - - -
17/11:00am - - - - - WSW 32 44 17 24 - - -
17/10:40am - - - - - SW 43 61 23 33 - - -
17/10:30am - - - - - W 39 61 21 33 - - -
17/10:00am - - - - - WNW 28 46 15 25 - - -
17/09:30am - - - - - WNW 20 35 11 19 - - -
17/09:00am - - - - - W 28 41 15 22 - - -
17/08:30am - - - - - NW 17 30 9 16 - - -
17/08:06am - - - - - W 35 69 19 37 - - -
17/08:00am - - - - - W 37 52 20 28 - - -
17/07:30am - - - - - W 32 50 17 27 - - -
17/07:00am - - - - - WNW 30 52 16 28 - - -
17/06:53am - - - - - WNW 39 70 21 38 - - -
17/06:49am - - - - - WNW 46 70 25 38 - - -
17/06:36am - - - - - W 39 85 21 46 - - -
17/06:35am - - - - - W 35 85 19 46 - - -
17/06:30am - - - - - W 33 54 18 29 - - -
17/06:10am - - - - - WSW 33 52 18 28 - - -
17/06:00am - - - - - W 39 67 21 36 - - -
17/05:36am - - - - - W 43 76 23 41 - - -
17/05:35am - - - - - W 41 76 22 41 - - -
17/05:33am - - - - - W 37 76 20 41 - - -
17/05:30am - - - - - W 35 52 19 28 - - -
17/05:08am - - - - - W 32 50 17 27 - - -
17/05:00am - - - - - W 35 52 19 28 - - -
17/04:30am - - - - - W 43 61 23 33 - - -
17/04:09am - - - - - W 39 57 21 31 - - -
17/04:00am - - - - - W 39 52 21 28 - - -
17/03:30am - - - - - W 44 69 24 37 - - -
17/03:29am - - - - - W 44 69 24 37 - - -
17/03:26am - - - - - W 43 69 23 37 - - -
17/03:04am - - - - - W 32 50 17 27 - - -
17/03:00am - - - - - W 28 44 15 24 - - -
17/02:33am - - - - - W 30 57 16 31 - - -
17/02:30am - - - - - W 26 35 14 19 - - -
17/02:00am - - - - - W 46 69 25 37 - - -
17/01:30am - - - - - WNW 32 57 17 31 - - -
17/01:00am - - - - - W 32 48 17 26 - - -
17/12:31am - - - - - W 41 61 22 33 - - -
17/12:30am - - - - - W 41 61 22 33 - - -
17/12:29am - - - - - W 43 61 23 33 - - -
17/12:00am - - - - - WNW 30 50 16 27 - - -
 
Date/Time
WST
Temp
°C
App
Temp
°C
Dew
Point
°C
Rel
Hum
%
Delta-T
°C
Wind Press
QNH
hPa
Press
MSL
hPa
Rain since
9am
mm
Dir  Spd
km/h
Gust
km/h
Spd
kts
Gust
kts
16/11:59pm - - - - - WNW 30 50 16 27 - - -
16/11:53pm - - - - - NW 26 50 14 27 - - -
16/11:30pm - - - - - NNW 24 33 13 18 - - -
16/11:00pm - - - - - NW 33 57 18 31 - - -
16/10:30pm - - - - - NW 28 48 15 26 - - -
16/10:00pm - - - - - NW 20 32 11 17 - - -
16/09:38pm - - - - - WNW 28 48 15 26 - - -
16/09:30pm - - - - - W 24 39 13 21 - - -
16/09:23pm - - - - - W 35 61 19 33 - - -
16/09:18pm - - - - - WNW 39 61 21 33 - - -
16/09:16pm - - - - - WNW 37 61 20 33 - - -
16/09:00pm - - - - - NW 17 37 9 20 - - -
16/08:30pm - - - - - WNW 30 43 16 23 - - -
16/08:00pm - - - - - WNW 32 44 17 24 - - -
16/07:30pm - - - - - WNW 20 35 11 19 - - -
16/07:00pm - - - - - W 30 59 16 32 - - -
16/06:50pm - - - - - W 30 61 16 33 - - -
16/06:30pm - - - - - W 24 37 13 20 - - -
16/06:00pm - - - - - WNW 30 41 16 22 - - -
16/05:30pm - - - - - W 26 41 14 22 - - -
16/05:02pm - - - - - W 37 67 20 36 - - -
16/05:00pm - - - - - W 33 48 18 26 - - -
16/04:30pm - - - - - W 28 39 15 21 - - -
16/04:10pm - - - - - WNW 30 48 16 26 - - -
16/04:00pm - - - - - W 33 50 18 27 - - -
16/03:40pm - - - - - WNW 32 50 17 27 - - -
16/03:30pm - - - - - W 26 43 14 23 - - -
16/03:00pm - - - - - WNW 30 44 16 24 - - -
16/02:32pm - - - - - WNW 30 48 16 26 - - -
16/02:30pm - - - - - WNW 32 48 17 26 - - -
16/02:28pm - - - - - WNW 30 48 16 26 - - -
16/02:00pm - - - - - W 32 43 17 23 - - -
16/01:30pm - - - - - W 33 46 18 25 - - -
16/01:00pm - - - - - W 32 50 17 27 - - -
16/12:56pm - - - - - W 32 50 17 27 - - -
16/12:30pm - - - - - W 32 46 17 25 - - -
16/12:08pm - - - - - W 28 46 15 25 - - -
16/12:00pm - - - - - WNW 24 37 13 20 - - -
16/11:30am - - - - - WNW 22 35 12 19 - - -
16/11:00am - - - - - WNW 30 46 16 25 - - -
16/10:41am - - - - - W 28 59 15 32 - - -
16/10:40am - - - - - W 24 59 13 32 - - -
16/10:30am - - - - - W 19 32 10 17 - - -
16/10:00am - - - - - W 17 26 9 14 - - -
16/09:30am - - - - - W 22 33 12 18 - - -
16/09:06am - - - - - W 28 46 15 25 - - -
16/09:00am - - - - - W 28 43 15 23 - - -
16/08:57am - - - - - W 32 50 17 27 - - -
16/08:30am - - - - - W 33 48 18 26 - - -
16/08:21am - - - - - W 30 48 16 26 - - -
16/08:00am - - - - - W 28 44 15 24 - - -
16/07:40am - - - - - W 28 48 15 26 - - -
16/07:30am - - - - - W 24 32 13 17 - - -
16/07:00am - - - - - WNW 24 33 13 18 - - -
16/06:30am - - - - - W 26 33 14 18 - - -

Latest Capital City Observations: Canberra | Sydney | Melbourne | Brisbane | Adelaide | Perth | Hobart | Darwin

Other formats

Comma delimited format used in spreadsheet applications
http://www.bom.gov.au/fwo/IDW60901/IDW60901.99255.axf

JavaScript Object Notation format (JSON) in row-major order
http://www.bom.gov.au/fwo/IDW60901/IDW60901.99255.json

Data quality

Most of these data are generated automatically and are frequently updated. Quality checks on data are not normally performed. It is possible for incorrect values to appear. Refer to information at About Latest Weather Observations and please check the disclaimer before using these data.